createdAt,value
2022-08-22T00:00:13.781Z,100423.69
2022-08-22T00:03:01.922Z,100359.06
2022-08-22T00:03:08.633Z,100415.88
2022-08-22T00:03:12.734Z,100413.78
2022-08-22T00:03:15.268Z,100417.59
2022-08-22T00:05:29.349Z,100420.34
2022-08-22T00:07:57.303Z,100418.44
2022-08-22T00:10:26.022Z,100417.59
2022-08-22T00:12:54.243Z,100419.28
2022-08-22T00:15:42.860Z,100422.22
2022-08-22T00:18:09.716Z,100426.03
2022-08-22T00:20:37.423Z,100427.72
2022-08-22T00:23:05.146Z,100422.22
2022-08-22T00:25:33.131Z,100425.84
2022-08-22T00:28:00.939Z,100420.56
2022-08-22T00:30:29.227Z,100418.88
2022-08-22T00:32:56.971Z,100410.66
2022-08-22T00:38:34.568Z,100421.19
2022-08-22T00:41:02.237Z,100415.72
2022-08-22T00:43:29.953Z,100415.50
2022-08-22T00:45:57.639Z,100417.41
2022-08-22T00:48:25.308Z,100420.16
2022-08-22T00:50:55.791Z,100421.00
2022-08-22T00:53:23.491Z,100422.91
2022-08-22T00:55:51.226Z,100429.22
2022-08-22T00:58:19.003Z,100422.28
2022-08-22T01:00:46.733Z,100423.94
2022-08-22T01:03:14.490Z,100420.38
2022-08-22T01:05:42.195Z,100421.19
2022-08-22T01:08:10.435Z,100421.19
2022-08-22T01:10:38.133Z,100418.47
2022-08-22T01:13:05.876Z,100417.63
2022-08-22T01:15:34.203Z,100413.19
2022-08-22T01:18:01.919Z,100425.22
2022-08-22T01:20:29.603Z,100422.47
2022-08-22T01:22:57.309Z,100425.22
2022-08-22T01:25:26.103Z,100422.47
2022-08-22T01:27:54.085Z,100427.97
2022-08-22T01:30:21.869Z,100423.56
2022-08-22T01:32:56.883Z,100420.81
2022-08-22T01:35:25.029Z,100427.13
2022-08-22T01:37:52.744Z,100421.88
2022-08-22T01:40:20.460Z,100421.00
2022-08-22T01:42:48.872Z,100425.47
2022-08-22T01:45:16.619Z,100421.00
2022-08-22T01:47:44.349Z,100421.88
2022-08-22T01:50:12.090Z,100422.91
2022-08-22T01:52:39.824Z,100431.16
2022-08-22T01:55:07.570Z,100426.50
2022-08-22T01:57:35.322Z,100428.41
2022-08-22T02:00:06.988Z,100429.47
2022-08-22T02:02:34.944Z,100425.66
2022-08-22T02:05:02.746Z,100427.56
2022-08-22T02:07:31.976Z,100425.66
2022-08-22T02:10:00.141Z,100428.66
2022-08-22T02:12:27.927Z,100426.75
2022-08-22T02:14:55.656Z,100434.97
2022-08-22T02:17:23.370Z,100435.19
2022-08-22T02:19:51.143Z,100436.00
2022-08-22T02:22:19.265Z,100430.53
2022-08-22T02:24:46.963Z,100431.59
2022-08-22T02:27:14.683Z,100431.59
2022-08-22T02:29:42.557Z,100427.78
2022-08-22T02:32:10.229Z,100435.19
2022-08-22T02:34:38.230Z,100432.44
2022-08-22T02:37:05.941Z,100428.00
2022-08-22T02:39:33.657Z,100427.16
2022-08-22T02:42:01.346Z,100429.91
2022-08-22T02:44:29.103Z,100427.16
2022-08-22T02:46:56.816Z,100416.19
2022-08-22T02:49:27.344Z,100426.09
2022-08-22T02:51:55.306Z,100420.81
2022-08-22T02:54:23.037Z,100429.06
2022-08-22T02:56:51.203Z,100417.22
2022-08-22T02:59:20.369Z,100416.41
2022-08-22T03:01:48.569Z,100415.56
2022-08-22T03:04:18.009Z,100423.78
2022-08-22T03:06:45.721Z,100422.97
2022-08-22T03:09:13.459Z,100422.09
2022-08-22T03:11:41.744Z,100421.06
2022-08-22T03:14:09.431Z,100420.22
2022-08-22T03:16:37.188Z,100419.34
2022-08-22T03:19:04.905Z,100412.19
2022-08-22T03:21:33.799Z,100417.69
2022-08-22T03:24:01.495Z,100413.84
2022-08-22T03:26:29.227Z,100412.19
2022-08-22T03:28:59.711Z,100408.59
2022-08-22T03:31:28.097Z,100407.75
2022-08-22T03:33:55.820Z,100406.06
2022-08-22T03:36:23.531Z,100403.31
2022-08-22T03:38:51.234Z,100403.31
2022-08-22T03:41:19.185Z,100406.06
2022-08-22T03:43:46.890Z,100404.38
2022-08-22T03:46:14.612Z,100415.38
2022-08-22T03:48:46.076Z,100412.63
2022-08-22T03:51:13.845Z,100409.03
2022-08-22T03:53:41.577Z,100409.88
2022-08-22T03:56:09.355Z,100411.78
2022-08-22T03:58:37.074Z,100408.16
2022-08-22T04:01:04.885Z,100422.97
2022-08-22T04:03:32.674Z,100419.16
2022-08-22T04:06:00.401Z,100424.88
2022-08-22T04:08:28.469Z,100421.06
2022-08-22T04:10:56.494Z,100431.19
2022-08-22T04:13:24.927Z,100423.16
2022-08-22T04:15:52.765Z,100429.53
2022-08-22T04:18:20.482Z,100436.69
2022-08-22T04:20:51.445Z,100432.03
2022-08-22T04:23:19.157Z,100439.44
2022-08-22T04:25:46.926Z,100439.44
2022-08-22T04:28:14.680Z,100444.09
2022-08-22T04:30:42.763Z,100446.00
2022-08-22T04:33:10.920Z,100445.13
2022-08-22T04:35:38.664Z,100446.84
2022-08-22T04:38:06.400Z,100454.22
2022-08-22T04:40:34.134Z,100453.59
2022-08-22T04:43:01.844Z,100454.44
2022-08-22T04:45:31.529Z,100450.84
2022-08-22T04:48:00.082Z,100451.50
2022-08-22T04:50:27.933Z,100452.53
2022-08-22T04:52:55.645Z,100442.63
2022-08-22T04:55:23.375Z,100455.50
2022-08-22T04:57:51.098Z,100451.88
2022-08-22T05:00:19.445Z,100457.38
2022-08-22T05:02:48.262Z,100458.25
2022-08-22T05:05:16.950Z,100455.28
2022-08-22T05:07:44.708Z,100459.09
2022-08-22T05:10:12.685Z,100464.56
2022-08-22T05:12:40.442Z,100476.59
2022-08-22T05:15:09.800Z,100468.34
2022-08-22T05:17:37.568Z,100481.88
2022-08-22T05:20:06.609Z,100477.47
2022-08-22T05:22:34.502Z,100480.19
2022-08-22T05:25:02.216Z,100476.59
2022-08-22T05:27:29.974Z,100483.13
2022-08-22T05:29:57.716Z,100478.28
2022-08-22T05:32:25.425Z,100488.22
2022-08-22T05:34:53.160Z,100484.41
2022-08-22T05:37:20.909Z,100483.56
2022-08-22T05:39:49.134Z,100486.09
2022-08-22T05:42:16.950Z,100486.09
2022-08-22T05:44:44.681Z,100492.41
2022-08-22T05:47:12.429Z,100489.47
2022-08-22T05:49:40.144Z,100494.97
2022-08-22T05:52:07.894Z,100489.47
2022-08-22T05:54:36.662Z,100491.38
2022-08-22T05:57:07.790Z,100495.81
2022-08-22T05:59:35.825Z,100494.31
2022-08-22T06:02:03.665Z,100500.44
2022-08-22T06:04:31.507Z,100494.13
2022-08-22T06:06:59.205Z,100503.19
2022-08-22T06:09:35.293Z,100503.19
2022-08-22T06:12:03.533Z,100501.50
2022-08-22T06:14:31.337Z,100494.97
2022-08-22T06:17:01.348Z,100507.63
2022-08-22T06:19:29.077Z,100506.78
2022-08-22T06:21:57.592Z,100504.88
2022-08-22T06:24:26.298Z,100507.63
2022-08-22T06:26:54.136Z,100512.06
2022-08-22T06:29:21.885Z,100509.31
2022-08-22T06:31:49.703Z,100507.19
2022-08-22T06:34:17.415Z,100510.38
2022-08-22T06:36:45.149Z,100520.31
2022-08-22T06:39:13.082Z,100517.75
2022-08-22T06:41:40.908Z,100523.88
2022-08-22T06:44:08.675Z,100529.56
2022-08-22T06:46:36.401Z,100519.22
2022-08-22T06:49:04.161Z,100516.50
2022-08-22T06:51:31.887Z,100520.91
2022-08-22T06:53:59.882Z,100520.06
2022-08-22T06:56:29.604Z,100530.00
2022-08-22T06:58:57.349Z,100523.66
2022-08-22T07:01:25.187Z,100530.84
2022-08-22T07:03:52.945Z,100521.53
2022-08-22T07:06:20.705Z,100527.88
2022-08-22T07:08:48.453Z,100522.38
2022-08-22T07:11:16.154Z,100528.94
2022-08-22T07:13:43.935Z,100525.13
2022-08-22T07:16:11.715Z,100527.88
2022-08-22T07:18:39.398Z,100530.41
2022-08-22T07:21:08.472Z,100532.97
2022-08-22T07:23:37.031Z,100535.72
2022-08-22T07:26:04.721Z,100524.72
2022-08-22T07:28:36.875Z,100529.34
2022-08-22T07:31:05.477Z,100531.88
2022-08-22T07:33:34.492Z,100524.50
2022-08-22T07:36:02.381Z,100526.19
2022-08-22T07:38:30.073Z,100526.19
2022-08-22T07:40:58.845Z,100529.78
2022-08-22T07:43:26.536Z,100526.19
2022-08-22T07:45:54.310Z,100535.47
2022-08-22T07:48:26.000Z,100532.53
2022-08-22T07:50:55.144Z,100537.19
2022-08-22T07:53:26.624Z,100531.69
2022-08-22T07:55:54.380Z,100532.72
2022-08-22T07:58:22.437Z,100537.19
2022-08-22T08:00:50.374Z,100537.19
2022-08-22T08:03:18.346Z,100528.72
2022-08-22T08:05:46.054Z,100525.97
2022-08-22T08:08:15.763Z,100523.03
2022-08-22T08:10:43.727Z,100525.13
2022-08-22T08:13:11.432Z,100520.72
2022-08-22T08:15:39.537Z,100524.06
2022-08-22T08:18:07.312Z,100528.50
2022-08-22T08:20:35.592Z,100534.00
2022-08-22T08:23:03.351Z,100538.66
2022-08-22T08:25:31.128Z,100538.41
2022-08-22T08:28:16.684Z,100533.78
2022-08-22T08:30:46.727Z,100536.75
2022-08-22T08:33:26.048Z,100539.25
2022-08-22T08:36:02.775Z,100532.09
2022-08-22T08:38:31.520Z,100534.00
2022-08-22T08:40:59.232Z,100532.28
2022-08-22T08:43:31.307Z,100528.28
2022-08-22T08:45:59.275Z,100537.78
2022-08-22T08:48:27.112Z,100537.78
2022-08-22T08:50:55.183Z,100536.94
2022-08-22T08:53:24.367Z,100535.03
2022-08-22T08:55:52.446Z,100538.03
2022-08-22T08:58:20.213Z,100538.84
2022-08-22T09:00:48.900Z,100542.66
2022-08-22T09:03:21.153Z,100542.00
2022-08-22T09:05:55.667Z,100532.28
2022-08-22T09:08:23.374Z,100536.31
2022-08-22T09:10:51.397Z,100539.94
2022-08-22T09:13:19.203Z,100533.16
2022-08-22T09:16:02.335Z,100538.84
2022-08-22T09:18:33.379Z,100535.03
2022-08-22T09:21:02.511Z,100532.09
2022-08-22T09:23:30.240Z,100541.38
2022-08-22T09:25:58.707Z,100535.44
2022-08-22T09:28:28.199Z,100535.00
2022-08-22T09:30:56.465Z,100533.31
2022-08-22T09:33:24.812Z,100536.50
2022-08-22T09:35:52.516Z,100539.25
2022-08-22T09:38:22.446Z,100542.19
2022-08-22T09:40:51.593Z,100536.28
2022-08-22T09:43:21.196Z,100529.09
2022-08-22T09:45:50.187Z,100536.47
2022-08-22T09:48:18.043Z,100537.94
2022-08-22T09:50:46.664Z,100536.91
2022-08-22T09:53:14.470Z,100530.56
2022-08-22T09:55:44.403Z,100530.34
2022-08-22T09:58:12.194Z,100531.41
2022-08-22T10:00:44.152Z,100526.97
2022-08-22T10:03:11.951Z,100531.41
2022-08-22T10:05:44.261Z,100534.16
2022-08-22T10:08:13.145Z,100539.03
2022-08-22T10:10:40.935Z,100531.84
2022-08-22T10:13:10.310Z,100537.09
2022-08-22T10:15:38.536Z,100528.03
2022-08-22T10:18:06.329Z,100545.59
2022-08-22T10:20:38.119Z,100528.88
2022-08-22T10:23:05.896Z,100539.66
2022-08-22T10:25:33.720Z,100540.28
2022-08-22T10:28:01.462Z,100548.94
2022-08-22T10:30:29.262Z,100548.94
2022-08-22T10:32:57.064Z,100540.69
2022-08-22T10:35:26.379Z,100551.28
2022-08-22T10:37:54.301Z,100544.06
2022-08-22T10:40:22.083Z,100543.44
2022-08-22T10:42:49.822Z,100543.88
2022-08-22T10:45:32.120Z,100551.69
2022-08-22T10:48:04.179Z,100543.25
2022-08-22T10:50:36.611Z,100545.78
2022-08-22T10:53:18.188Z,100545.78
2022-08-22T10:55:56.108Z,100548.72
2022-08-22T11:01:38.034Z,100534.59
2022-08-22T11:04:05.403Z,100539.03
2022-08-22T11:06:33.199Z,100541.75
2022-08-22T11:09:00.956Z,100535.84
2022-08-22T11:11:32.846Z,100528.66
2022-08-22T11:14:00.867Z,100529.94
2022-08-22T11:16:28.989Z,100535.00
2022-08-22T11:19:01.933Z,100529.50
2022-08-22T11:21:31.090Z,100537.34
2022-08-22T11:24:00.462Z,100523.38
2022-08-22T11:26:33.559Z,100528.03
2022-08-22T11:29:13.710Z,100532.25
2022-08-22T11:31:47.279Z,100523.19
2022-08-22T11:34:20.547Z,100527.63
2022-08-22T11:36:48.529Z,100519.81
2022-08-22T11:39:18.903Z,100527.19
2022-08-22T11:41:52.283Z,100527.19
2022-08-22T11:44:20.542Z,100521.72
2022-08-22T11:46:48.788Z,100524.25
2022-08-22T11:49:16.587Z,100513.72
2022-08-22T11:51:46.802Z,100515.63
2022-08-22T11:54:17.431Z,100516.47
2022-08-22T11:56:45.395Z,100514.34
2022-08-22T11:59:13.156Z,100514.34
2022-08-22T12:01:41.249Z,100506.75
2022-08-22T12:04:09.854Z,100508.22
2022-08-22T12:06:37.814Z,100513.06
2022-08-22T12:09:05.951Z,100506.06
2022-08-22T12:11:33.699Z,100502.06
2022-08-22T12:14:03.926Z,100503.31
2022-08-22T12:16:34.364Z,100500.81
2022-08-22T12:19:02.089Z,100493.22
2022-08-22T12:21:30.601Z,100495.53
2022-08-22T12:23:58.351Z,100495.97
2022-08-22T12:26:26.041Z,100496.56
2022-08-22T12:28:53.809Z,100495.09
2022-08-22T12:31:21.558Z,100489.59
2022-08-22T12:33:49.295Z,100487.09
2022-08-22T12:36:18.699Z,100484.34
2022-08-22T12:38:47.986Z,100486.00
2022-08-22T12:41:28.105Z,100465.53
2022-08-22T12:44:02.664Z,100471.00
2022-08-22T12:46:31.338Z,100458.97
2022-08-22T12:48:59.059Z,100454.97
2022-08-22T12:51:27.068Z,100455.16
2022-08-22T12:53:57.337Z,100456.84
2022-08-22T12:56:25.698Z,100455.38
2022-08-22T12:58:53.514Z,100465.75
2022-08-22T13:01:34.403Z,100463.00
2022-08-22T13:04:02.461Z,100449.88
2022-08-22T13:06:30.844Z,100457.53
2022-08-22T13:08:58.633Z,100454.78
2022-08-22T13:11:26.446Z,100464.88
2022-08-22T13:13:57.144Z,100457.94
2022-08-22T13:16:25.043Z,100446.94
2022-08-22T13:18:53.663Z,100449.69
2022-08-22T13:21:21.737Z,100445.06
2022-08-22T13:23:50.875Z,100447.19
2022-08-22T13:26:32.922Z,100442.91
2022-08-22T13:29:24.446Z,100436.59
2022-08-22T13:31:50.334Z,100440.41
2022-08-22T13:34:22.826Z,100440.81
2022-08-22T13:36:52.274Z,100441.88
2022-08-22T13:39:20.487Z,100443.34
2022-08-22T13:41:48.206Z,100445.25
2022-08-22T13:44:17.190Z,100447.75
2022-08-22T13:47:12.829Z,100437.84
2022-08-22T13:49:32.702Z,100442.28
2022-08-22T13:52:00.481Z,100438.69
2022-08-22T13:54:28.440Z,100437.84
2022-08-22T13:56:56.181Z,100439.75
2022-08-22T13:59:47.205Z,100438.06
2022-08-22T14:02:17.915Z,100437.44
2022-08-22T14:04:46.067Z,100430.66
2022-08-22T14:07:13.827Z,100430.47
2022-08-22T14:09:41.587Z,100430.84
2022-08-22T14:12:12.054Z,100433.84
2022-08-22T14:14:40.518Z,100432.38
2022-08-22T14:17:08.265Z,100437.03
2022-08-22T14:19:52.624Z,100433.41
2022-08-22T14:22:21.079Z,100443.78
2022-08-22T14:25:00.114Z,100441.03
2022-08-22T14:27:27.942Z,100441.63
2022-08-22T14:29:55.695Z,100436.16
2022-08-22T14:32:26.701Z,100439.53
2022-08-22T14:34:54.568Z,100431.72
2022-08-22T14:37:26.794Z,100433.63
2022-08-22T14:39:54.750Z,100434.47
2022-08-22T14:42:23.755Z,100439.97
2022-08-22T14:44:54.358Z,100433.63
2022-08-22T14:47:54.535Z,100437.03
2022-08-22T14:50:11.394Z,100437.84
2022-08-22T14:52:40.583Z,100433.41
2022-08-22T14:55:08.919Z,100431.72
2022-08-22T14:57:36.645Z,100433.63
2022-08-22T15:00:08.750Z,100442.09
2022-08-22T15:02:36.528Z,100433.41
2022-08-22T15:05:05.418Z,100434.03
2022-08-22T15:07:33.500Z,100434.03
2022-08-22T15:10:03.072Z,100445.84
2022-08-22T15:12:31.268Z,100438.69
2022-08-22T15:14:59.094Z,100437.63
2022-08-22T15:17:26.784Z,100436.16
2022-08-22T15:19:54.525Z,100440.41
2022-08-22T15:22:25.766Z,100438.69
2022-08-22T15:24:56.320Z,100439.78
2022-08-22T15:27:24.103Z,100431.34
2022-08-22T15:29:51.836Z,100422.03
2022-08-22T15:32:19.584Z,100429.00
2022-08-22T15:34:49.394Z,100433.84
2022-08-22T15:37:20.509Z,100426.69
2022-08-22T15:39:48.267Z,100434.47
2022-08-22T15:42:16.112Z,100438.28
2022-08-22T15:44:46.476Z,100434.03
2022-08-22T15:47:25.502Z,100434.88
2022-08-22T15:49:56.496Z,100435.75
2022-08-22T15:52:26.129Z,100431.53
2022-08-22T15:54:54.154Z,100434.09
2022-08-22T15:57:21.855Z,100434.69
2022-08-22T15:59:54.516Z,100436.81
2022-08-22T16:02:22.716Z,100431.53
2022-08-22T16:04:51.608Z,100426.25
2022-08-22T16:07:19.441Z,100432.81
2022-08-22T16:09:49.744Z,100424.38
2022-08-22T16:12:17.447Z,100426.50
2022-08-22T16:14:46.208Z,100423.75
2022-08-22T16:17:13.862Z,100424.59
2022-08-22T16:19:41.537Z,100427.31
2022-08-22T16:22:09.669Z,100423.50
2022-08-22T16:24:37.403Z,100419.72
2022-08-22T16:27:05.109Z,100419.09
2022-08-22T16:29:35.529Z,100419.09
2022-08-22T16:32:09.141Z,100420.75
2022-08-22T16:34:36.886Z,100421.63
2022-08-22T16:37:04.636Z,100421.00
2022-08-22T16:39:32.358Z,100421.63
2022-08-22T16:42:00.266Z,100422.03
2022-08-22T16:44:27.959Z,100418.25
2022-08-22T16:46:55.711Z,100422.03
2022-08-22T16:49:23.438Z,100419.28
2022-08-22T16:51:51.147Z,100419.28
2022-08-22T16:54:18.878Z,100417.63
2022-08-22T16:56:46.655Z,100428.59
2022-08-22T16:59:23.466Z,100427.53
2022-08-22T17:01:51.752Z,100427.75
2022-08-22T17:04:19.520Z,100432.41
2022-08-22T17:06:47.524Z,100423.13
2022-08-22T17:09:16.399Z,100432.41
2022-08-22T17:11:44.114Z,100428.84
2022-08-22T17:14:11.850Z,100425.22
2022-08-22T17:16:39.797Z,100426.94
2022-08-22T17:19:09.202Z,100426.09
2022-08-22T17:21:36.939Z,100435.16
2022-08-22T17:24:04.708Z,100433.47
2022-08-22T17:26:32.472Z,100438.94
2022-08-22T17:29:00.195Z,100440.03
2022-08-22T17:31:28.103Z,100438.13
2022-08-22T17:33:58.226Z,100441.09
2022-08-22T17:36:27.740Z,100444.88
2022-08-22T17:38:55.471Z,100452.91
2022-08-22T17:41:23.228Z,100465.56
2022-08-22T17:43:51.397Z,100458.16
2022-08-22T17:46:19.088Z,100456.50
2022-08-22T17:48:48.148Z,100457.34
2022-08-22T17:51:18.385Z,100459.25
2022-08-22T17:53:46.092Z,100453.75
2022-08-22T17:56:16.372Z,100455.66
2022-08-22T17:58:44.354Z,100456.69
2022-08-22T18:01:31.958Z,100446.59
2022-08-22T18:04:02.441Z,100453.94
2022-08-22T18:06:30.358Z,100460.31
2022-08-22T18:09:15.199Z,100452.28
2022-08-22T18:11:43.071Z,100452.28
2022-08-22T18:14:10.773Z,100456.09
2022-08-22T18:16:38.602Z,100462.44
2022-08-22T18:19:06.286Z,100467.91
2022-08-22T18:21:33.971Z,100461.78
2022-08-22T18:24:01.703Z,100463.69
2022-08-22T18:26:29.419Z,100468.97
2022-08-22T18:28:57.109Z,100483.56
2022-08-22T18:31:24.946Z,100487.13
2022-08-22T18:33:52.661Z,100485.66
2022-08-22T18:36:21.544Z,100486.50
2022-08-22T18:38:49.331Z,100489.25
2022-08-22T18:41:17.094Z,100487.56
2022-08-22T18:43:45.080Z,100492.19
2022-08-22T18:46:12.812Z,100489.69
2022-08-22T18:48:54.357Z,100486.09
2022-08-22T18:51:28.406Z,100486.50
2022-08-22T18:53:56.250Z,100490.72
2022-08-22T18:56:23.962Z,100490.72
2022-08-22T18:59:05.173Z,100498.94
2022-08-22T19:01:42.266Z,100498.13
2022-08-22T19:04:12.676Z,100498.34
2022-08-22T19:06:40.358Z,100497.06
2022-08-22T19:09:08.061Z,100511.63
2022-08-22T19:11:37.277Z,100511.63
2022-08-22T19:14:05.715Z,100516.28
2022-08-22T19:16:33.667Z,100512.69
2022-08-22T19:19:01.400Z,100508.88
2022-08-22T19:21:46.849Z,100511.00
2022-08-22T19:24:14.536Z,100513.75
2022-08-22T19:26:42.191Z,100516.50
2022-08-22T19:29:10.914Z,100514.59
2022-08-22T19:31:41.184Z,100514.81
2022-08-22T19:34:08.992Z,100514.81
2022-08-22T19:36:36.720Z,100527.47
2022-08-22T19:39:04.414Z,100532.13
2022-08-22T19:41:36.732Z,100531.06
2022-08-22T19:44:04.418Z,100527.28
2022-08-22T19:46:32.133Z,100535.50
2022-08-22T19:48:59.832Z,100530.22
2022-08-22T19:51:27.515Z,100529.38
2022-08-22T19:53:55.160Z,100531.88
2022-08-22T19:56:22.840Z,100533.78
2022-08-22T19:58:52.295Z,100527.47
2022-08-22T20:01:19.987Z,100527.47
2022-08-22T20:03:47.716Z,100532.97
2022-08-22T20:06:40.790Z,100528.31
2022-08-22T20:09:05.355Z,100526.00
2022-08-22T20:11:37.680Z,100529.56
2022-08-22T20:14:05.426Z,100526.84
2022-08-22T20:16:33.167Z,100528.53
2022-08-22T20:19:06.988Z,100520.31
2022-08-22T20:21:38.839Z,100531.28
2022-08-22T20:24:07.214Z,100530.22
2022-08-22T20:26:43.401Z,100531.28
2022-08-22T20:29:19.759Z,100525.16
2022-08-22T20:31:47.463Z,100526.84
2022-08-22T20:34:15.183Z,100526.00
2022-08-22T20:36:42.839Z,100519.66
2022-08-22T20:39:10.964Z,100514.19
2022-08-22T20:41:38.760Z,100518.84
2022-08-22T20:44:06.455Z,100516.09
2022-08-22T20:46:35.845Z,100520.72
2022-08-22T20:49:03.548Z,100523.44
2022-08-22T20:51:31.579Z,100525.34
2022-08-22T20:53:59.266Z,100530.84
2022-08-22T20:56:26.986Z,100527.06
2022-08-22T20:58:57.058Z,100523.69
2022-08-22T21:01:28.608Z,100523.03
2022-08-22T21:03:59.269Z,100525.78
2022-08-22T21:09:43.824Z,100534.03
2022-08-22T21:12:25.594Z,100528.72
2022-08-22T21:17:39.322Z,100535.09
2022-08-22T21:20:13.237Z,100534.84
2022-08-22T21:25:32.603Z,100539.72
2022-08-22T21:28:13.288Z,100537.84
2022-08-22T21:30:42.948Z,100528.72
2022-08-22T21:33:24.649Z,100534.03
2022-08-22T21:35:52.433Z,100535.09
2022-08-22T21:38:20.110Z,100541.41
2022-08-22T21:40:47.808Z,100539.72
2022-08-22T21:43:15.492Z,100545.19
2022-08-22T21:45:43.173Z,100540.59
2022-08-22T21:48:10.899Z,100542.47
2022-08-22T21:50:40.916Z,100545.19
2022-08-22T21:53:10.174Z,100545.19
2022-08-22T21:55:39.703Z,100539.91
2022-08-22T21:58:07.423Z,100534.44
2022-08-22T22:00:35.203Z,100538.00
2022-08-22T22:03:04.035Z,100539.91
2022-08-22T22:05:35.012Z,100537.16
2022-08-22T22:08:02.670Z,100535.25
2022-08-22T22:10:31.095Z,100531.69
2022-08-22T22:12:59.702Z,100545.41
2022-08-22T22:15:27.434Z,100541.81
2022-08-22T22:17:55.326Z,100550.06
2022-08-22T22:20:23.148Z,100540.13
2022-08-22T22:22:50.871Z,100538.22
2022-08-22T22:25:40.232Z,100537.38
2022-08-22T22:28:06.513Z,100534.84
2022-08-22T22:30:34.326Z,100549.19
2022-08-22T22:33:02.236Z,100538.44
2022-08-22T22:35:30.140Z,100546.66
2022-08-22T22:37:58.051Z,100543.09
2022-08-22T22:40:26.028Z,100550.25
2022-08-22T22:42:53.897Z,100544.97
2022-08-22T22:45:21.656Z,100553.00
2022-08-22T22:47:49.481Z,100551.09
2022-08-22T22:50:17.277Z,100544.75
2022-08-22T22:52:45.347Z,100549.63
2022-08-22T22:55:24.382Z,100553.19
2022-08-22T22:57:59.262Z,100552.34
2022-08-22T23:00:31.026Z,100549.63
2022-08-22T23:02:59.032Z,100544.13
2022-08-22T23:05:26.718Z,100548.78
2022-08-22T23:07:54.556Z,100555.09
2022-08-22T23:10:22.407Z,100555.09
2022-08-22T23:12:50.126Z,100552.34
2022-08-22T23:15:17.944Z,100557.00
2022-08-22T23:17:45.678Z,100551.53
2022-08-22T23:20:13.392Z,100554.25
2022-08-22T23:22:42.922Z,100547.09
2022-08-22T23:25:10.678Z,100543.53
2022-08-22T23:27:38.370Z,100542.66
2022-08-22T23:30:06.124Z,100539.91
2022-08-22T23:32:33.899Z,100547.28
2022-08-22T23:35:01.643Z,100548.13
2022-08-22T23:37:29.432Z,100547.28
2022-08-22T23:39:57.158Z,100547.28
2022-08-22T23:42:24.973Z,100543.72
2022-08-22T23:44:52.748Z,100547.28
2022-08-22T23:47:20.470Z,100546.47
2022-08-22T23:49:48.202Z,100543.91
2022-08-22T23:52:15.932Z,100544.78
2022-08-22T23:54:43.660Z,100551.13
2022-08-22T23:57:11.622Z,100547.53
2022-08-22T23:59:43.408Z,100548.56
